Flight Track Log - Related Links

Times and Time Zones

All times are in EDT time to prevent confusion due to time zone crossing. See the SKW5333 flight status page for this flight to view local times or setup timezone preferences in your user account.

Time Position Orientation Groundspeed Altitude Reporting Facility
EDT Latitude Longitude Course Direction KTS MPH feet Rate Location/Type
Thu 01:40:02 AM 34.0981 -117.2806 81° East  Level Estimated
Thu 01:41:02 AM 34.1167 -117.1400 81° East  Level Estimated
Thu 01:42:02 AM 34.1352 -116.9993 81° East  Level Estimated
Thu 01:43:02 AM 34.1535 -116.8585 81° East  Level Estimated
Thu 01:44:02 AM 34.1717 -116.7177 81° East  Level Estimated
Thu 01:45:02 AM 34.1897 -116.5768 81° East  Level Estimated
Thu 01:46:02 AM 34.2075 -116.4359 81° East  Level Estimated
Thu 01:47:02 AM 34.2252 -116.2949 81° East  Level Estimated
Thu 01:48:02 AM 34.2427 -116.1538 81° East  Level Estimated
Thu 01:49:02 AM 34.2601 -116.0127 82° East  Level Estimated
Thu 01:50:02 AM 34.2772 -115.8716 82° East  Level Estimated
Thu 01:51:02 AM 34.2943 -115.7303 82° East  Level Estimated
Thu 01:52:02 AM 34.3111 -115.5890 82° East  Level Estimated
Thu 01:53:02 AM 34.3279 -115.4477 82° East  Level Estimated
Thu 01:54:02 AM 34.3444 -115.3063 82° East  Level Estimated
Thu 01:55:02 AM 34.3608 -115.1648 82° East  Level Estimated
Thu 01:56:02 AM 34.3770 -115.0233 82° East  Level Estimated
Thu 01:57:02 AM 34.3931 -114.8818 82° East  Level Estimated
Thu 01:58:02 AM 34.4090 -114.7402 82° East  Level Estimated
Thu 01:59:02 AM 34.4247 -114.5985 82° East  Level Estimated
Thu 02:00:02 AM 34.4403 -114.4568 82° East  Level Estimated
Thu 02:01:02 AM 34.4557 -114.3150 83° East  Level Estimated
Thu 02:02:02 AM 34.4709 -114.1731 83° East  Level Estimated
Thu 02:03:02 AM 34.4860 -114.0313 83° East  Level Estimated
Thu 02:04:02 AM 34.5009 -113.8893 83° East  Level Estimated
Thu 02:05:02 AM 34.5156 -113.7474 83° East  Level Estimated
Thu 02:06:02 AM 34.5302 -113.6053 83° East  Level Estimated
Thu 02:07:02 AM 34.5446 -113.4632 83° East  Level Estimated
Thu 02:08:02 AM 34.5589 -113.3211 83° East  Level Estimated
Thu 02:09:02 AM 34.5730 -113.1789 83° East  Level Estimated
Thu 02:10:02 AM 34.5869 -113.0367 83° East  Level Estimated
Thu 02:11:02 AM 34.6007 -112.8944 83° East  Level Estimated
Thu 02:12:02 AM 34.6143 -112.7521 83° East  Level Estimated
Thu 02:13:02 AM 34.6277 -112.6097 84° East  Level Estimated
Thu 02:14:02 AM 34.6409 -112.4673 84° East  Level Estimated
Thu 02:15:02 AM 34.6540 -112.3249 84° East  Level Estimated
Thu 02:16:02 AM 34.6670 -112.1824 84° East  Level Estimated
Thu 02:17:02 AM 34.6797 -112.0398 84° East  Level Estimated
Thu 02:18:02 AM 34.6923 -111.8972 84° East  Level Estimated
Thu 02:19:02 AM 34.7048 -111.7546 84° East  Level Estimated
Thu 02:20:02 AM 34.7170 -111.6119 84° East  Level Estimated
Thu 02:21:02 AM 34.7291 -111.4692 84° East  Level Estimated
Thu 02:22:02 AM 34.7411 -111.3264 84° East  Level Estimated
Thu 02:23:02 AM 34.7528 -111.1836 84° East  Level Estimated
Thu 02:24:02 AM 34.7644 -111.0408 84° East  Level Estimated
Thu 02:25:02 AM 34.7759 -110.8979 84° East  Level Estimated
Thu 02:26:02 AM 34.7871 -110.7550 85° East  Level Estimated
Thu 02:27:02 AM 34.7982 -110.6120 85° East  Level Estimated
Thu 02:28:02 AM 34.8092 -110.4690 85° East  Level Estimated
Thu 02:29:02 AM 34.8199 -110.3260 85° East  Level Estimated
Thu 02:30:02 AM 34.8305 -110.1829 85° East  Level Estimated
Thu 02:31:02 AM 34.8410 -110.0398 85° East  Level Estimated
Thu 02:32:02 AM 34.8512 -109.8966 85° East  Level Estimated
Thu 02:33:02 AM 34.8613 -109.7535 85° East  Level Estimated
Thu 02:34:02 AM 34.8713 -109.6103 85° East  Level Estimated
Thu 02:35:02 AM 34.8810 -109.4670 85° East  Level Estimated
Thu 02:36:02 AM 34.8906 -109.3237 85° East  Level Estimated
Thu 02:37:02 AM 34.9000 -109.1804 85° East  Level Estimated
Thu 02:38:02 AM 34.9093 -109.0371 86° East  Level Estimated
Thu 02:39:02 AM 34.9184 -108.8937 86° East  Level Estimated
Thu 02:40:02 AM 34.9273 -108.7503 86° East  Level Estimated
Thu 02:41:02 AM 34.9360 -108.6068 86° East  Level Estimated
Thu 02:42:02 AM 34.9446 -108.4633 86° East  Level Estimated
Thu 02:43:02 AM 34.9530 -108.3198 86° East  Level Estimated
Thu 02:44:02 AM 34.9613 -108.1763 86° East  Level Estimated
Thu 02:45:02 AM 34.9693 -108.0328 86° East  Level Estimated
Thu 02:46:02 AM 34.9772 -107.8892 86° East  Level Estimated
Thu 02:47:02 AM 34.9850 -107.7455 86° East  Level Estimated
Thu 02:48:02 AM 34.9926 -107.6019 86° East  Level Estimated
Thu 02:49:02 AM 35.0000 -107.4582 86° East  Level Estimated
Thu 02:50:02 AM 35.0072 -107.3145 87° East  Level Estimated
Thu 02:51:02 AM 35.0143 -107.1708 87° East  Level Estimated
Thu 02:52:02 AM 35.0211 -107.0270 87° East  Level Estimated
Thu 02:53:02 AM 35.0279 -106.8833 87° East  Level Estimated
Thu 02:54:02 AM 35.0344 -106.7395 87° East  Level Estimated
Thu 02:55:02 AM 35.0408 -106.5957 267° West  Level Estimated
Thu 02:56:02 AM 35.0344 -106.7395 87° East  Level Estimated
Thu 02:57:02 AM 35.0408 -106.5957 267° West  Level Estimated
Thu 02:58:02 AM 35.0344 -106.7395 87° East  Level Estimated
Thu 02:59:02 AM 35.0408 -106.5957 267° West  Level Estimated
Thu 03:00:02 AM 35.0344 -106.7395 87° East  Level Estimated
Thu 03:01:02 AM 35.0408 -106.5957 267° West  Level Estimated
Thu 03:02:02 AM 35.0344 -106.7395 87° East  Level Estimated
Thu 03:03:02 AM 35.0408 -106.5957 267° West  Level Estimated
Thu 03:04:02 AM 35.0344 -106.7395 87° East  Level Estimated
Thu 03:05:02 AM 35.0408 -106.5957 267° West  Level Estimated
Thu 03:06:02 AM 35.0344 -106.7395 87° East  Level Estimated
Thu 03:07:02 AM 35.0408 -106.5957 267° West  Level Estimated
Thu 03:08:02 AM 35.0344 -106.7395 87° East  Level Estimated
Thu 03:09:02 AM 35.0408 -106.5957 267° West  Level Estimated
Thu 03:10:02 AM 35.0344 -106.7395 267° West  Level Estimated

Login

Don't have an account? Register now (free) for customized features, flight alerts, and more!